createdAt,value
2022-09-04T00:04:33.071Z,1.13
2022-09-04T00:09:57.938Z,2.64
2022-09-04T00:15:29.701Z,1.46
2022-09-04T00:20:57.440Z,2.44
2022-09-04T00:26:24.464Z,1.21
2022-09-04T00:31:57.731Z,2.03
2022-09-04T00:37:20.911Z,1.62
2022-09-04T00:42:48.127Z,1.95
2022-09-04T00:48:30.120Z,2.60
2022-09-04T00:54:13.812Z,1.62
2022-09-04T00:59:54.725Z,1.89
2022-09-04T01:05:22.713Z,1.38
2022-09-04T01:10:53.367Z,1.91
2022-09-04T01:16:24.334Z,3.39
2022-09-04T01:21:52.423Z,1.40
2022-09-04T01:27:18.885Z,1.26
2022-09-04T01:32:42.758Z,1.26
2022-09-04T01:38:09.162Z,1.14
2022-09-04T01:43:36.272Z,2.42
2022-09-04T01:49:01.140Z,1.60
2022-09-04T01:54:28.645Z,1.60
2022-09-04T02:00:09.122Z,2.79
2022-09-04T02:05:37.717Z,2.03
2022-09-04T02:11:08.243Z,2.02
2022-09-04T02:16:36.795Z,2.13
2022-09-04T02:22:06.385Z,2.53
2022-09-04T02:27:34.964Z,1.80
2022-09-04T02:33:03.051Z,1.75
2022-09-04T02:38:24.963Z,4.01
2022-09-04T02:43:51.205Z,2.55
2022-09-04T02:49:17.416Z,1.58
2022-09-04T02:54:40.299Z,2.32
2022-09-04T03:00:08.985Z,1.42
2022-09-04T03:05:33.160Z,1.62
2022-09-04T03:10:59.280Z,3.00
2022-09-04T03:16:24.838Z,1.63
2022-09-04T03:21:49.981Z,2.49
2022-09-04T03:27:15.956Z,2.17
2022-09-04T03:32:40.503Z,2.33
2022-09-04T03:38:06.777Z,1.86
2022-09-04T03:43:37.107Z,2.19
2022-09-04T03:49:06.717Z,2.03
2022-09-04T03:54:32.937Z,2.10
2022-09-04T04:00:05.046Z,2.28
2022-09-04T04:05:30.290Z,2.61
2022-09-04T04:11:03.247Z,3.16
2022-09-04T04:16:40.285Z,4.46
2022-09-04T04:22:04.149Z,3.51
2022-09-04T04:27:35.467Z,3.57
2022-09-04T04:33:09.668Z,5.20
2022-09-04T04:38:49.811Z,3.25
2022-09-04T04:44:17.768Z,4.55
2022-09-04T04:49:39.757Z,4.64
2022-09-04T04:55:14.670Z,4.75
2022-09-04T05:00:39.131Z,5.32
2022-09-04T05:06:01.173Z,5.42
2022-09-04T05:11:22.666Z,4.77
2022-09-04T05:16:45.799Z,4.43
2022-09-04T05:22:07.758Z,5.45
2022-09-04T05:27:31.388Z,4.97
2022-09-04T05:33:06.488Z,5.76
2022-09-04T05:38:46.948Z,6.68
2022-09-04T05:44:15.766Z,7.32
2022-09-04T05:50:21.347Z,9.65
2022-09-04T05:55:55.468Z,5.75
2022-09-04T06:01:28.673Z,2.99
2022-09-04T06:07:02.875Z,2.41
2022-09-04T06:12:30.209Z,2.51
2022-09-04T06:18:15.204Z,2.36
2022-09-04T06:23:47.559Z,2.70
2022-09-04T06:29:28.228Z,4.30
2022-09-04T06:35:07.364Z,5.08
2022-09-04T06:40:36.815Z,5.00
2022-09-04T06:46:08.500Z,4.86
2022-09-04T06:51:39.781Z,4.98
2022-09-04T06:57:13.786Z,5.63
2022-09-04T07:03:00.010Z,4.64
2022-09-04T07:08:31.354Z,4.39
2022-09-04T07:14:01.410Z,4.78
2022-09-04T07:19:42.505Z,5.15
2022-09-04T07:25:18.056Z,5.27
2022-09-04T07:30:43.045Z,4.30
2022-09-04T07:36:11.014Z,4.78
2022-09-04T07:41:37.740Z,4.43
2022-09-04T07:47:08.943Z,4.71
2022-09-04T07:52:34.284Z,3.20
2022-09-04T07:58:08.496Z,3.97
2022-09-04T08:03:56.646Z,4.17
2022-09-04T08:09:38.506Z,5.10
2022-09-04T08:15:20.133Z,4.82
2022-09-04T08:20:47.806Z,4.43
2022-09-04T08:26:13.821Z,5.24
2022-09-04T08:31:42.075Z,5.73
2022-09-04T08:37:10.380Z,2.44
2022-09-04T08:42:39.707Z,2.84
2022-09-04T08:48:31.864Z,3.72
2022-09-04T08:54:33.962Z,3.82
2022-09-04T09:00:22.176Z,4.15
2022-09-04T09:05:49.483Z,4.71
2022-09-04T09:11:33.849Z,3.96
2022-09-04T09:17:24.396Z,3.30
2022-09-04T09:22:48.755Z,3.50
2022-09-04T09:28:31.942Z,7.51
2022-09-04T09:34:10.430Z,2.63
2022-09-04T09:39:59.956Z,5.62
2022-09-04T09:45:42.722Z,7.54
2022-09-04T09:51:35.382Z,8.76
2022-09-04T09:57:08.639Z,7.38
2022-09-04T10:02:54.281Z,8.93
2022-09-04T10:08:56.758Z,8.80
2022-09-04T10:15:00.243Z,7.75
2022-09-04T10:20:36.776Z,11.96
2022-09-04T10:26:31.821Z,12.65
2022-09-04T10:32:05.635Z,10.11
2022-09-04T10:37:46.974Z,9.90
2022-09-04T10:43:37.120Z,10.85
2022-09-04T10:49:09.015Z,10.40
2022-09-04T10:54:52.670Z,13.61
2022-09-04T11:00:39.281Z,11.48
2022-09-04T11:06:03.105Z,5.83
2022-09-04T11:11:57.194Z,7.17
2022-09-04T11:17:42.155Z,6.93
2022-09-04T11:23:29.737Z,5.22
2022-09-04T11:29:17.452Z,6.55
2022-09-04T11:34:53.516Z,7.41
2022-09-04T11:40:29.786Z,6.43
2022-09-04T11:46:22.976Z,4.78
2022-09-04T11:52:00.746Z,3.01
2022-09-04T11:57:33.636Z,2.51
2022-09-04T12:03:06.416Z,3.52
2022-09-04T12:09:05.533Z,3.10
2022-09-04T12:14:54.437Z,1.84
2022-09-04T12:20:31.588Z,1.47
2022-09-04T12:26:16.502Z,0.96
2022-09-04T12:31:59.961Z,1.90
2022-09-04T12:37:33.800Z,1.27
2022-09-04T12:43:04.445Z,1.39
2022-09-04T12:48:40.301Z,1.98
2022-09-04T12:54:07.963Z,1.74
2022-09-04T12:59:39.366Z,1.52
2022-09-04T13:05:10.285Z,0.76
2022-09-04T13:10:54.802Z,0.87
2022-09-04T13:16:22.819Z,3.05
2022-09-04T13:21:50.497Z,0.80
2022-09-04T13:27:24.128Z,2.69
2022-09-04T13:32:54.223Z,1.49
2022-09-04T13:38:39.374Z,1.09
2022-09-04T13:44:29.671Z,2.08
2022-09-04T13:50:15.761Z,0.82
2022-09-04T13:55:44.330Z,3.60
2022-09-04T14:01:09.276Z,1.55
2022-09-04T14:06:34.382Z,0.98
2022-09-04T14:12:00.637Z,0.76
2022-09-04T14:17:30.751Z,1.13
2022-09-04T14:22:53.134Z,1.15
2022-09-04T14:28:22.355Z,0.55
2022-09-04T14:33:49.736Z,0.64
2022-09-04T14:39:18.467Z,1.36
2022-09-04T14:44:45.020Z,1.25
2022-09-04T14:50:28.608Z,1.28
2022-09-04T14:55:51.787Z,0.80
2022-09-04T15:01:34.697Z,1.32
2022-09-04T15:07:11.958Z,2.88
2022-09-04T15:12:48.575Z,0.57
2022-09-04T15:18:37.574Z,1.00
2022-09-04T15:24:07.080Z,1.14
2022-09-04T15:29:36.060Z,1.66
2022-09-04T15:35:05.200Z,0.92
2022-09-04T15:40:36.289Z,0.64
2022-09-04T15:45:58.833Z,2.01
2022-09-04T15:51:25.853Z,1.95
2022-09-04T15:56:52.116Z,0.80
2022-09-04T16:02:15.665Z,3.42
2022-09-04T16:07:49.678Z,1.22
2022-09-04T16:13:17.145Z,1.51
2022-09-04T16:19:02.816Z,0.45
2022-09-04T16:24:35.337Z,2.05
2022-09-04T16:30:05.273Z,0.77
2022-09-04T16:35:42.227Z,1.39
2022-09-04T16:41:06.853Z,2.54
2022-09-04T16:46:34.710Z,0.82
2022-09-04T16:52:00.034Z,3.44
2022-09-04T16:57:37.272Z,2.82
2022-09-04T17:03:03.524Z,1.27
2022-09-04T17:08:30.456Z,2.75
2022-09-04T17:13:52.658Z,0.80
2022-09-04T17:19:15.423Z,1.30
2022-09-04T17:29:16.665Z,0.70
2022-09-04T17:30:14.992Z,0.83
2022-09-04T17:40:35.494Z,1.91
2022-09-04T17:41:32.399Z,1.00
2022-09-04T17:46:34.156Z,1.42
2022-09-04T17:52:02.638Z,1.54
2022-09-04T17:57:27.999Z,2.13
2022-09-04T18:03:03.882Z,2.16
2022-09-04T18:08:26.842Z,2.92
2022-09-04T18:13:54.472Z,5.51
2022-09-04T18:19:18.797Z,2.73
2022-09-04T18:24:41.455Z,8.25
2022-09-04T18:31:48.264Z,4.33
2022-09-04T18:37:20.790Z,2.61
2022-09-04T18:45:38.975Z,2.42
2022-09-04T18:50:37.751Z,1.50
2022-09-04T18:51:47.286Z,2.54
2022-09-04T18:57:12.998Z,1.53
2022-09-04T19:02:53.041Z,1.75
2022-09-04T19:08:10.264Z,0.80
2022-09-04T19:13:37.595Z,2.44
2022-09-04T19:19:07.058Z,1.39
2022-09-04T19:24:34.309Z,1.33
2022-09-04T19:29:55.195Z,1.61
2022-09-04T19:35:18.796Z,1.09
2022-09-04T19:46:07.545Z,1.67
2022-09-04T19:46:27.798Z,1.38
2022-09-04T19:53:29.788Z,1.06
2022-09-04T19:57:32.422Z,1.62
2022-09-04T20:02:44.407Z,1.66
2022-09-04T20:08:07.484Z,1.15
2022-09-04T20:13:36.792Z,1.93
2022-09-04T20:19:05.424Z,0.99
2022-09-04T20:24:30.999Z,2.33
2022-09-04T20:29:58.124Z,1.92
2022-09-04T20:35:33.358Z,1.06
2022-09-04T20:40:52.688Z,1.15
2022-09-04T20:51:49.862Z,0.96
2022-09-04T20:52:51.807Z,2.33
2022-09-04T21:00:05.877Z,1.14
2022-09-04T21:03:17.614Z,1.49
2022-09-04T21:08:10.454Z,2.38
2022-09-04T21:13:36.976Z,1.20
2022-09-04T21:19:06.514Z,1.91
2022-09-04T21:24:44.768Z,0.87
2022-09-04T21:30:24.107Z,2.94
2022-09-04T21:36:25.211Z,0.77
2022-09-04T21:41:30.698Z,2.58
2022-09-04T21:47:17.350Z,1.18
2022-09-04T21:52:55.968Z,1.38
2022-09-04T22:02:44.807Z,1.32
2022-09-04T22:04:13.882Z,0.78
2022-09-04T22:13:30.679Z,0.75
2022-09-04T22:15:10.827Z,1.13
2022-09-04T22:20:34.869Z,1.26
2022-09-04T22:26:23.886Z,1.96
2022-09-04T22:31:44.617Z,1.31
2022-09-04T22:37:21.895Z,1.28
2022-09-04T22:43:22.568Z,0.89
2022-09-04T22:49:11.755Z,1.78
2022-09-04T22:54:41.250Z,1.52
2022-09-04T23:00:38.484Z,1.31
2022-09-04T23:08:05.740Z,1.41
2022-09-04T23:14:02.133Z,2.99
2022-09-04T23:17:54.933Z,1.77
2022-09-04T23:26:45.505Z,1.84
2022-09-04T23:29:12.759Z,1.58
2022-09-04T23:35:13.985Z,1.18
2022-09-04T23:40:25.952Z,1.64
2022-09-04T23:46:01.129Z,2.08
2022-09-04T23:51:42.417Z,2.07
2022-09-04T23:57:26.132Z,1.95
